sensor_id;sensor_type;location;lat;lon;timestamp;temperature;humidity
5675;DHT22;2860;54.284;10.158;2024-01-06T00:00:54;-0.50;99.90
5675;DHT22;2860;54.284;10.158;2024-01-06T00:03:19;-0.40;99.90
5675;DHT22;2860;54.284;10.158;2024-01-06T00:05:45;-0.40;99.90
5675;DHT22;2860;54.284;10.158;2024-01-06T00:08:10;-0.40;99.90
5675;DHT22;2860;54.284;10.158;2024-01-06T00:10:36;-0.40;99.90
5675;DHT22;2860;54.284;10.158;2024-01-06T00:13:01;-0.40;99.90
5675;DHT22;2860;54.284;10.158;2024-01-06T00:15:27;-0.40;99.90
5675;DHT22;2860;54.284;10.158;2024-01-06T00:17:52;-0.40;99.90
5675;DHT22;2860;54.284;10.158;2024-01-06T00:20:18;-0.40;99.90
5675;DHT22;2860;54.284;10.158;2024-01-06T00:22:43;-0.40;99.90
5675;DHT22;2860;54.284;10.158;2024-01-06T00:25:09;-0.40;99.90
5675;DHT22;2860;54.284;10.158;2024-01-06T00:27:35;-0.40;99.90
5675;DHT22;2860;54.284;10.158;2024-01-06T00:30:00;-0.40;99.90
5675;DHT22;2860;54.284;10.158;2024-01-06T00:32:26;-0.30;99.90
5675;DHT22;2860;54.284;10.158;2024-01-06T00:34:51;-0.30;99.90
5675;DHT22;2860;54.284;10.158;2024-01-06T00:37:17;-0.30;99.90
5675;DHT22;2860;54.284;10.158;2024-01-06T00:39:42;-0.30;99.90
5675;DHT22;2860;54.284;10.158;2024-01-06T00:42:08;-0.30;99.90
5675;DHT22;2860;54.284;10.158;2024-01-06T00:44:35;-0.30;99.90
5675;DHT22;2860;54.284;10.158;2024-01-06T00:47:01;-0.30;99.90
5675;DHT22;2860;54.284;10.158;2024-01-06T00:49:26;-0.30;99.90
5675;DHT22;2860;54.284;10.158;2024-01-06T00:51:52;-0.30;99.90
5675;DHT22;2860;54.284;10.158;2024-01-06T00:54:17;-0.30;99.90
5675;DHT22;2860;54.284;10.158;2024-01-06T00:56:43;-0.30;99.90
5675;DHT22;2860;54.284;10.158;2024-01-06T00:59:09;-0.30;99.90
5675;DHT22;2860;54.284;10.158;2024-01-06T01:01:34;-0.30;99.90
5675;DHT22;2860;54.284;10.158;2024-01-06T01:04:00;-0.30;99.90
5675;DHT22;2860;54.284;10.158;2024-01-06T01:06:26;-0.30;99.90
5675;DHT22;2860;54.284;10.158;2024-01-06T01:08:51;-0.30;99.90
5675;DHT22;2860;54.284;10.158;2024-01-06T01:11:17;-0.20;99.90
5675;DHT22;2860;54.284;10.158;2024-01-06T01:13:42;-0.20;99.90
5675;DHT22;2860;54.284;10.158;2024-01-06T01:16:07;-0.20;99.90
5675;DHT22;2860;54.284;10.158;2024-01-06T01:18:33;-0.20;99.90
5675;DHT22;2860;54.284;10.158;2024-01-06T01:20:58;-0.30;99.90
5675;DHT22;2860;54.284;10.158;2024-01-06T01:23:24;-0.20;99.90
5675;DHT22;2860;54.284;10.158;2024-01-06T01:25:49;-0.20;99.90
5675;DHT22;2860;54.284;10.158;2024-01-06T01:28:15;-0.20;99.90
5675;DHT22;2860;54.284;10.158;2024-01-06T01:30:40;-0.20;99.90
5675;DHT22;2860;54.284;10.158;2024-01-06T01:33:06;-0.20;99.90
5675;DHT22;2860;54.284;10.158;2024-01-06T01:35:31;-0.20;99.90
5675;DHT22;2860;54.284;10.158;2024-01-06T01:37:57;-0.20;99.90
5675;DHT22;2860;54.284;10.158;2024-01-06T01:40:22;-0.20;99.90
5675;DHT22;2860;54.284;10.158;2024-01-06T01:42:48;-0.20;99.90
5675;DHT22;2860;54.284;10.158;2024-01-06T01:45:13;-0.20;99.90
5675;DHT22;2860;54.284;10.158;2024-01-06T01:47:39;-0.20;99.90
5675;DHT22;2860;54.284;10.158;2024-01-06T01:50:05;-0.20;99.90
5675;DHT22;2860;54.284;10.158;2024-01-06T01:52:31;-0.20;99.90
5675;DHT22;2860;54.284;10.158;2024-01-06T01:54:58;-0.20;99.90
5675;DHT22;2860;54.284;10.158;2024-01-06T01:57:24;-0.20;99.90
5675;DHT22;2860;54.284;10.158;2024-01-06T01:59:50;-0.10;99.90
5675;DHT22;2860;54.284;10.158;2024-01-06T02:02:16;-0.10;99.90
5675;DHT22;2860;54.284;10.158;2024-01-06T02:04:45;-0.10;99.90
5675;DHT22;2860;54.284;10.158;2024-01-06T02:07:10;-0.10;99.90
5675;DHT22;2860;54.284;10.158;2024-01-06T02:09:36;0.00;99.90
5675;DHT22;2860;54.284;10.158;2024-01-06T02:12:02;0.00;99.90
5675;DHT22;2860;54.284;10.158;2024-01-06T02:14:28;0.00;99.90
5675;DHT22;2860;54.284;10.158;2024-01-06T02:16:54;0.00;99.90
5675;DHT22;2860;54.284;10.158;2024-01-06T02:19:19;-0.10;99.90
5675;DHT22;2860;54.284;10.158;2024-01-06T02:21:50;-0.10;99.90
5675;DHT22;2860;54.284;10.158;2024-01-06T02:24:16;-0.10;99.90
5675;DHT22;2860;54.284;10.158;2024-01-06T02:26:41;0.00;99.90
5675;DHT22;2860;54.284;10.158;2024-01-06T02:29:07;0.00;99.90
5675;DHT22;2860;54.284;10.158;2024-01-06T02:31:32;0.00;99.90
5675;DHT22;2860;54.284;10.158;2024-01-06T02:33:58;0.00;99.90
5675;DHT22;2860;54.284;10.158;2024-01-06T02:36:23;0.00;99.90
5675;DHT22;2860;54.284;10.158;2024-01-06T02:38:49;-0.10;99.90
5675;DHT22;2860;54.284;10.158;2024-01-06T02:41:14;-0.10;99.90
5675;DHT22;2860;54.284;10.158;2024-01-06T02:43:40;-0.10;99.90
5675;DHT22;2860;54.284;10.158;2024-01-06T02:46:07;0.00;99.90
5675;DHT22;2860;54.284;10.158;2024-01-06T02:48:32;0.00;99.90
5675;DHT22;2860;54.284;10.158;2024-01-06T02:50:58;0.00;99.90
5675;DHT22;2860;54.284;10.158;2024-01-06T02:53:23;0.00;99.90
5675;DHT22;2860;54.284;10.158;2024-01-06T02:55:49;0.00;99.90
5675;DHT22;2860;54.284;10.158;2024-01-06T02:58:14;0.00;99.90
5675;DHT22;2860;54.284;10.158;2024-01-06T03:00:40;0.00;99.90
5675;DHT22;2860;54.284;10.158;2024-01-06T03:03:05;0.00;99.90
5675;DHT22;2860;54.284;10.158;2024-01-06T03:05:31;0.00;99.90
5675;DHT22;2860;54.284;10.158;2024-01-06T03:07:56;0.00;99.90
5675;DHT22;2860;54.284;10.158;2024-01-06T03:10:22;0.00;99.90
5675;DHT22;2860;54.284;10.158;2024-01-06T03:12:48;0.00;99.90
5675;DHT22;2860;54.284;10.158;2024-01-06T03:15:13;0.00;99.90
5675;DHT22;2860;54.284;10.158;2024-01-06T03:17:39;0.00;99.90
5675;DHT22;2860;54.284;10.158;2024-01-06T03:20:05;-0.10;99.90
5675;DHT22;2860;54.284;10.158;2024-01-06T03:22:30;-0.10;99.90
5675;DHT22;2860;54.284;10.158;2024-01-06T03:24:56;-0.10;99.90
5675;DHT22;2860;54.284;10.158;2024-01-06T03:27:21;-0.10;99.90
5675;DHT22;2860;54.284;10.158;2024-01-06T03:29:47;-0.10;99.90
5675;DHT22;2860;54.284;10.158;2024-01-06T03:32:13;-0.20;99.90
5675;DHT22;2860;54.284;10.158;2024-01-06T03:34:38;-0.10;99.90
5675;DHT22;2860;54.284;10.158;2024-01-06T03:37:05;-0.10;99.90
5675;DHT22;2860;54.284;10.158;2024-01-06T03:39:31;-0.10;99.90
5675;DHT22;2860;54.284;10.158;2024-01-06T03:41:56;-0.10;99.90
5675;DHT22;2860;54.284;10.158;2024-01-06T03:44:22;-0.10;99.90
5675;DHT22;2860;54.284;10.158;2024-01-06T03:46:47;-0.10;99.90
5675;DHT22;2860;54.284;10.158;2024-01-06T03:49:13;-0.10;99.90
5675;DHT22;2860;54.284;10.158;2024-01-06T03:51:38;-0.10;99.90
5675;DHT22;2860;54.284;10.158;2024-01-06T03:54:04;-0.10;99.90
5675;DHT22;2860;54.284;10.158;2024-01-06T03:56:29;-0.10;99.90
5675;DHT22;2860;54.284;10.158;2024-01-06T03:58:55;-0.10;99.90
5675;DHT22;2860;54.284;10.158;2024-01-06T04:01:20;-0.10;99.90
5675;DHT22;2860;54.284;10.158;2024-01-06T04:03:46;-0.20;99.90
5675;DHT22;2860;54.284;10.158;2024-01-06T04:06:12;-0.10;99.90
5675;DHT22;2860;54.284;10.158;2024-01-06T04:08:39;-0.10;99.90
5675;DHT22;2860;54.284;10.158;2024-01-06T04:11:04;-0.10;99.90
5675;DHT22;2860;54.284;10.158;2024-01-06T04:13:30;-0.10;99.90
5675;DHT22;2860;54.284;10.158;2024-01-06T04:15:55;-0.10;99.90
5675;DHT22;2860;54.284;10.158;2024-01-06T04:18:21;-0.10;99.90
5675;DHT22;2860;54.284;10.158;2024-01-06T04:20:46;-0.20;99.90
5675;DHT22;2860;54.284;10.158;2024-01-06T04:23:12;-0.10;99.90
5675;DHT22;2860;54.284;10.158;2024-01-06T04:25:38;-0.10;99.90
5675;DHT22;2860;54.284;10.158;2024-01-06T04:28:03;-0.10;99.90
5675;DHT22;2860;54.284;10.158;2024-01-06T04:30:29;-0.10;99.90
5675;DHT22;2860;54.284;10.158;2024-01-06T04:32:54;-0.10;99.90
5675;DHT22;2860;54.284;10.158;2024-01-06T04:35:20;-0.10;99.90
5675;DHT22;2860;54.284;10.158;2024-01-06T04:37:45;-0.10;99.90
5675;DHT22;2860;54.284;10.158;2024-01-06T04:40:11;-0.10;99.90
5675;DHT22;2860;54.284;10.158;2024-01-06T04:42:37;-0.10;99.90
5675;DHT22;2860;54.284;10.158;2024-01-06T04:45:03;-0.10;99.90
5675;DHT22;2860;54.284;10.158;2024-01-06T04:47:29;-0.20;99.90
5675;DHT22;2860;54.284;10.158;2024-01-06T04:49:56;-0.10;99.90
5675;DHT22;2860;54.284;10.158;2024-01-06T04:52:21;-0.10;99.90
5675;DHT22;2860;54.284;10.158;2024-01-06T04:54:47;-0.10;99.90
5675;DHT22;2860;54.284;10.158;2024-01-06T04:57:12;-0.10;99.90
5675;DHT22;2860;54.284;10.158;2024-01-06T04:59:38;-0.10;99.90
5675;DHT22;2860;54.284;10.158;2024-01-06T05:02:05;-0.10;99.90
5675;DHT22;2860;54.284;10.158;2024-01-06T05:04:30;-0.10;99.90
5675;DHT22;2860;54.284;10.158;2024-01-06T05:06:58;-0.10;99.90
5675;DHT22;2860;54.284;10.158;2024-01-06T05:09:23;0.00;99.90
5675;DHT22;2860;54.284;10.158;2024-01-06T05:11:49;-0.10;99.90
5675;DHT22;2860;54.284;10.158;2024-01-06T05:14:14;-0.10;99.90
5675;DHT22;2860;54.284;10.158;2024-01-06T05:16:40;-0.10;99.90
5675;DHT22;2860;54.284;10.158;2024-01-06T05:19:05;-0.10;99.90
5675;DHT22;2860;54.284;10.158;2024-01-06T05:21:31;-0.10;99.90
5675;DHT22;2860;54.284;10.158;2024-01-06T05:23:56;-0.10;99.90
5675;DHT22;2860;54.284;10.158;2024-01-06T05:26:22;-0.10;99.90
5675;DHT22;2860;54.284;10.158;2024-01-06T05:28:48;-0.10;99.90
5675;DHT22;2860;54.284;10.158;2024-01-06T05:31:14;-0.10;99.90
5675;DHT22;2860;54.284;10.158;2024-01-06T05:33:39;-0.10;99.90
5675;DHT22;2860;54.284;10.158;2024-01-06T05:36:05;-0.10;99.90
5675;DHT22;2860;54.284;10.158;2024-01-06T05:38:30;-0.10;99.90
5675;DHT22;2860;54.284;10.158;2024-01-06T05:40:56;-0.10;99.90
5675;DHT22;2860;54.284;10.158;2024-01-06T05:43:21;-0.10;99.90
5675;DHT22;2860;54.284;10.158;2024-01-06T05:45:48;-0.10;99.90
5675;DHT22;2860;54.284;10.158;2024-01-06T05:48:13;-0.10;99.90
5675;DHT22;2860;54.284;10.158;2024-01-06T05:50:39;-0.10;99.90
5675;DHT22;2860;54.284;10.158;2024-01-06T05:53:05;-0.10;99.90
5675;DHT22;2860;54.284;10.158;2024-01-06T05:55:31;-0.10;99.90
5675;DHT22;2860;54.284;10.158;2024-01-06T05:57:56;-0.10;99.90
5675;DHT22;2860;54.284;10.158;2024-01-06T06:00:22;-0.10;99.90
5675;DHT22;2860;54.284;10.158;2024-01-06T06:02:48;-0.10;99.90
5675;DHT22;2860;54.284;10.158;2024-01-06T06:05:13;-0.10;99.90
5675;DHT22;2860;54.284;10.158;2024-01-06T06:07:39;-0.10;99.90
5675;DHT22;2860;54.284;10.158;2024-01-06T06:10:07;-0.10;99.90
5675;DHT22;2860;54.284;10.158;2024-01-06T06:12:33;-0.10;99.90
5675;DHT22;2860;54.284;10.158;2024-01-06T06:14:58;-0.20;99.90
5675;DHT22;2860;54.284;10.158;2024-01-06T06:17:23;-0.10;99.90
5675;DHT22;2860;54.284;10.158;2024-01-06T06:19:49;-0.10;99.90
5675;DHT22;2860;54.284;10.158;2024-01-06T06:22:15;-0.10;99.90
5675;DHT22;2860;54.284;10.158;2024-01-06T06:24:40;-0.10;99.90
5675;DHT22;2860;54.284;10.158;2024-01-06T06:27:06;-0.10;99.90
5675;DHT22;2860;54.284;10.158;2024-01-06T06:29:31;-0.10;99.90
5675;DHT22;2860;54.284;10.158;2024-01-06T06:31:56;-0.10;99.90
5675;DHT22;2860;54.284;10.158;2024-01-06T06:34:22;-0.10;99.90
5675;DHT22;2860;54.284;10.158;2024-01-06T06:36:48;-0.10;99.90
5675;DHT22;2860;54.284;10.158;2024-01-06T06:39:13;-0.10;99.90
5675;DHT22;2860;54.284;10.158;2024-01-06T06:41:39;-0.10;99.90
5675;DHT22;2860;54.284;10.158;2024-01-06T06:44:04;-0.10;99.90
5675;DHT22;2860;54.284;10.158;2024-01-06T06:46:30;-0.10;99.90
5675;DHT22;2860;54.284;10.158;2024-01-06T06:48:56;-0.10;99.90
5675;DHT22;2860;54.284;10.158;2024-01-06T06:51:21;-0.10;99.90
5675;DHT22;2860;54.284;10.158;2024-01-06T06:53:50;-0.10;99.90
5675;DHT22;2860;54.284;10.158;2024-01-06T06:56:15;-0.10;99.90
5675;DHT22;2860;54.284;10.158;2024-01-06T06:58:42;-0.10;99.90
5675;DHT22;2860;54.284;10.158;2024-01-06T07:01:08;-0.10;99.90
5675;DHT22;2860;54.284;10.158;2024-01-06T07:03:33;-0.10;99.90
5675;DHT22;2860;54.284;10.158;2024-01-06T07:05:59;-0.10;99.90
5675;DHT22;2860;54.284;10.158;2024-01-06T07:08:24;-0.10;99.90
5675;DHT22;2860;54.284;10.158;2024-01-06T07:10:50;0.00;99.90
5675;DHT22;2860;54.284;10.158;2024-01-06T07:13:15;-0.10;99.90
5675;DHT22;2860;54.284;10.158;2024-01-06T07:15:40;0.00;99.90
5675;DHT22;2860;54.284;10.158;2024-01-06T07:18:06;-0.10;99.90
5675;DHT22;2860;54.284;10.158;2024-01-06T07:20:32;-0.10;99.90
5675;DHT22;2860;54.284;10.158;2024-01-06T07:22:57;-0.10;99.90
5675;DHT22;2860;54.284;10.158;2024-01-06T07:25:23;0.00;99.90
5675;DHT22;2860;54.284;10.158;2024-01-06T07:27:48;-0.10;99.90
5675;DHT22;2860;54.284;10.158;2024-01-06T07:30:14;0.00;99.90
5675;DHT22;2860;54.284;10.158;2024-01-06T07:32:40;-0.10;99.90
5675;DHT22;2860;54.284;10.158;2024-01-06T07:35:05;0.00;99.90
5675;DHT22;2860;54.284;10.158;2024-01-06T07:37:31;0.00;99.90
5675;DHT22;2860;54.284;10.158;2024-01-06T07:39:57;-0.10;99.90
5675;DHT22;2860;54.284;10.158;2024-01-06T07:42:22;-0.10;99.90
5675;DHT22;2860;54.284;10.158;2024-01-06T07:44:48;0.00;99.90
5675;DHT22;2860;54.284;10.158;2024-01-06T07:47:13;0.00;99.90
5675;DHT22;2860;54.284;10.158;2024-01-06T07:49:40;0.00;99.90
5675;DHT22;2860;54.284;10.158;2024-01-06T07:52:05;0.00;99.90
5675;DHT22;2860;54.284;10.158;2024-01-06T07:54:31;-0.10;99.90
5675;DHT22;2860;54.284;10.158;2024-01-06T07:56:56;-0.10;99.90
5675;DHT22;2860;54.284;10.158;2024-01-06T07:59:22;-0.10;99.90
5675;DHT22;2860;54.284;10.158;2024-01-06T08:01:47;0.00;99.90
5675;DHT22;2860;54.284;10.158;2024-01-06T08:04:13;0.00;99.90
5675;DHT22;2860;54.284;10.158;2024-01-06T08:06:38;-0.10;99.90
5675;DHT22;2860;54.284;10.158;2024-01-06T08:09:03;-0.10;99.90
5675;DHT22;2860;54.284;10.158;2024-01-06T08:11:29;0.00;99.90
5675;DHT22;2860;54.284;10.158;2024-01-06T08:13:54;0.00;99.90
5675;DHT22;2860;54.284;10.158;2024-01-06T08:16:20;0.00;99.90
5675;DHT22;2860;54.284;10.158;2024-01-06T08:18:46;0.00;99.90
5675;DHT22;2860;54.284;10.158;2024-01-06T08:21:12;0.00;99.90
5675;DHT22;2860;54.284;10.158;2024-01-06T08:23:37;0.00;99.90
5675;DHT22;2860;54.284;10.158;2024-01-06T08:26:03;0.00;99.90
5675;DHT22;2860;54.284;10.158;2024-01-06T08:28:29;0.10;99.90
5675;DHT22;2860;54.284;10.158;2024-01-06T08:30:55;0.00;99.90
5675;DHT22;2860;54.284;10.158;2024-01-06T08:33:21;0.10;99.90
5675;DHT22;2860;54.284;10.158;2024-01-06T08:35:46;0.10;99.90
5675;DHT22;2860;54.284;10.158;2024-01-06T08:38:12;0.10;99.90
5675;DHT22;2860;54.284;10.158;2024-01-06T08:40:37;0.20;99.90
5675;DHT22;2860;54.284;10.158;2024-01-06T08:43:03;0.10;99.90
5675;DHT22;2860;54.284;10.158;2024-01-06T08:45:29;0.10;99.90
5675;DHT22;2860;54.284;10.158;2024-01-06T08:47:54;0.20;99.90
5675;DHT22;2860;54.284;10.158;2024-01-06T08:50:20;0.20;99.90
5675;DHT22;2860;54.284;10.158;2024-01-06T08:52:45;0.20;99.90
5675;DHT22;2860;54.284;10.158;2024-01-06T08:55:11;0.20;99.90
5675;DHT22;2860;54.284;10.158;2024-01-06T08:57:36;0.20;99.90
5675;DHT22;2860;54.284;10.158;2024-01-06T09:00:03;0.20;99.90
5675;DHT22;2860;54.284;10.158;2024-01-06T09:02:29;0.20;99.90
5675;DHT22;2860;54.284;10.158;2024-01-06T09:04:55;0.20;99.90
5675;DHT22;2860;54.284;10.158;2024-01-06T09:07:20;0.20;99.90
5675;DHT22;2860;54.284;10.158;2024-01-06T09:09:46;0.20;99.90
5675;DHT22;2860;54.284;10.158;2024-01-06T09:12:11;0.30;99.90
5675;DHT22;2860;54.284;10.158;2024-01-06T09:14:37;0.40;99.90
5675;DHT22;2860;54.284;10.158;2024-01-06T09:17:02;0.30;99.90
5675;DHT22;2860;54.284;10.158;2024-01-06T09:19:29;0.30;99.90
5675;DHT22;2860;54.284;10.158;2024-01-06T09:21:56;0.30;99.90
5675;DHT22;2860;54.284;10.158;2024-01-06T09:24:21;0.30;99.90
5675;DHT22;2860;54.284;10.158;2024-01-06T09:26:47;0.40;99.90
5675;DHT22;2860;54.284;10.158;2024-01-06T09:29:15;0.30;99.90
5675;DHT22;2860;54.284;10.158;2024-01-06T09:31:41;0.30;99.90
5675;DHT22;2860;54.284;10.158;2024-01-06T09:34:09;0.30;99.90
5675;DHT22;2860;54.284;10.158;2024-01-06T09:36:35;0.30;99.90
5675;DHT22;2860;54.284;10.158;2024-01-06T09:39:01;0.40;99.90
5675;DHT22;2860;54.284;10.158;2024-01-06T09:41:26;0.40;99.90
5675;DHT22;2860;54.284;10.158;2024-01-06T09:43:52;0.40;99.90
5675;DHT22;2860;54.284;10.158;2024-01-06T09:46:24;0.40;99.90
5675;DHT22;2860;54.284;10.158;2024-01-06T09:48:53;0.40;99.90
5675;DHT22;2860;54.284;10.158;2024-01-06T09:51:20;0.40;99.90
5675;DHT22;2860;54.284;10.158;2024-01-06T09:53:56;0.40;99.90
5675;DHT22;2860;54.284;10.158;2024-01-06T09:56:24;0.40;99.90
5675;DHT22;2860;54.284;10.158;2024-01-06T09:58:50;0.40;99.90
5675;DHT22;2860;54.284;10.158;2024-01-06T10:01:18;0.40;99.90
5675;DHT22;2860;54.284;10.158;2024-01-06T10:03:44;0.40;99.90
5675;DHT22;2860;54.284;10.158;2024-01-06T10:06:11;0.40;99.90
5675;DHT22;2860;54.284;10.158;2024-01-06T10:08:37;0.50;99.90
5675;DHT22;2860;54.284;10.158;2024-01-06T10:11:06;0.40;99.90
5675;DHT22;2860;54.284;10.158;2024-01-06T10:13:45;0.40;99.90
5675;DHT22;2860;54.284;10.158;2024-01-06T10:16:10;0.40;99.90
5675;DHT22;2860;54.284;10.158;2024-01-06T10:18:36;0.40;99.90
5675;DHT22;2860;54.284;10.158;2024-01-06T10:21:05;0.40;99.90
5675;DHT22;2860;54.284;10.158;2024-01-06T10:23:32;0.40;99.90
5675;DHT22;2860;54.284;10.158;2024-01-06T10:25:58;0.40;99.90
5675;DHT22;2860;54.284;10.158;2024-01-06T10:28:24;0.40;99.90
5675;DHT22;2860;54.284;10.158;2024-01-06T10:30:53;0.40;99.90
5675;DHT22;2860;54.284;10.158;2024-01-06T10:33:20;0.40;99.90
5675;DHT22;2860;54.284;10.158;2024-01-06T10:35:47;0.50;99.90
5675;DHT22;2860;54.284;10.158;2024-01-06T10:38:14;0.50;99.90
5675;DHT22;2860;54.284;10.158;2024-01-06T10:41:02;0.50;99.90
5675;DHT22;2860;54.284;10.158;2024-01-06T10:43:32;0.50;99.90
5675;DHT22;2860;54.284;10.158;2024-01-06T10:46:02;0.50;99.90
5675;DHT22;2860;54.284;10.158;2024-01-06T10:48:34;0.50;99.90
5675;DHT22;2860;54.284;10.158;2024-01-06T10:51:00;0.40;99.90
5675;DHT22;2860;54.284;10.158;2024-01-06T10:53:27;0.40;99.90
5675;DHT22;2860;54.284;10.158;2024-01-06T10:55:53;0.40;99.90
5675;DHT22;2860;54.284;10.158;2024-01-06T10:58:19;0.40;99.90
5675;DHT22;2860;54.284;10.158;2024-01-06T11:00:45;0.40;99.90
5675;DHT22;2860;54.284;10.158;2024-01-06T11:03:13;0.40;99.90
5675;DHT22;2860;54.284;10.158;2024-01-06T11:05:40;0.40;99.90
5675;DHT22;2860;54.284;10.158;2024-01-06T11:08:06;0.40;99.90
5675;DHT22;2860;54.284;10.158;2024-01-06T11:10:32;0.40;99.90
5675;DHT22;2860;54.284;10.158;2024-01-06T11:13:15;0.40;99.90
5675;DHT22;2860;54.284;10.158;2024-01-06T11:15:50;0.40;99.90
5675;DHT22;2860;54.284;10.158;2024-01-06T11:18:36;0.40;99.90
5675;DHT22;2860;54.284;10.158;2024-01-06T11:24:08;0.40;99.90
5675;DHT22;2860;54.284;10.158;2024-01-06T11:26:38;0.40;99.90
5675;DHT22;2860;54.284;10.158;2024-01-06T11:29:05;0.40;99.90
5675;DHT22;2860;54.284;10.158;2024-01-06T11:31:33;0.40;99.90
5675;DHT22;2860;54.284;10.158;2024-01-06T11:34:18;0.50;99.90
5675;DHT22;2860;54.284;10.158;2024-01-06T11:36:45;0.50;99.90
5675;DHT22;2860;54.284;10.158;2024-01-06T11:39:36;0.50;99.90
5675;DHT22;2860;54.284;10.158;2024-01-06T11:42:03;0.50;99.90
5675;DHT22;2860;54.284;10.158;2024-01-06T11:44:29;0.50;99.90
5675;DHT22;2860;54.284;10.158;2024-01-06T11:46:59;0.50;99.90
5675;DHT22;2860;54.284;10.158;2024-01-06T11:49:27;0.50;99.90
5675;DHT22;2860;54.284;10.158;2024-01-06T11:51:59;0.50;99.90
5675;DHT22;2860;54.284;10.158;2024-01-06T11:54:24;0.50;99.90
5675;DHT22;2860;54.284;10.158;2024-01-06T11:56:50;0.50;99.90
5675;DHT22;2860;54.284;10.158;2024-01-06T11:59:18;0.60;99.90
5675;DHT22;2860;54.284;10.158;2024-01-06T12:01:44;0.60;99.90
5675;DHT22;2860;54.284;10.158;2024-01-06T12:04:13;0.60;99.90
5675;DHT22;2860;54.284;10.158;2024-01-06T12:06:39;0.60;99.90
5675;DHT22;2860;54.284;10.158;2024-01-06T12:09:05;0.50;99.90
5675;DHT22;2860;54.284;10.158;2024-01-06T12:11:31;0.50;99.90
5675;DHT22;2860;54.284;10.158;2024-01-06T12:13:56;0.60;99.90
5675;DHT22;2860;54.284;10.158;2024-01-06T12:16:22;0.50;99.90
5675;DHT22;2860;54.284;10.158;2024-01-06T12:18:54;0.50;99.90
5675;DHT22;2860;54.284;10.158;2024-01-06T12:21:25;0.60;99.90
5675;DHT22;2860;54.284;10.158;2024-01-06T12:23:50;0.60;99.90
5675;DHT22;2860;54.284;10.158;2024-01-06T12:26:20;0.50;99.90
5675;DHT22;2860;54.284;10.158;2024-01-06T12:28:46;0.50;99.90
5675;DHT22;2860;54.284;10.158;2024-01-06T12:31:12;0.50;99.90
5675;DHT22;2860;54.284;10.158;2024-01-06T12:33:41;0.50;99.90
5675;DHT22;2860;54.284;10.158;2024-01-06T12:36:07;0.50;99.90
5675;DHT22;2860;54.284;10.158;2024-01-06T12:38:37;0.50;99.90
5675;DHT22;2860;54.284;10.158;2024-01-06T12:41:04;0.50;99.90
5675;DHT22;2860;54.284;10.158;2024-01-06T12:43:30;0.60;99.90
5675;DHT22;2860;54.284;10.158;2024-01-06T12:45:55;0.50;99.90
5675;DHT22;2860;54.284;10.158;2024-01-06T12:48:23;0.50;99.90
5675;DHT22;2860;54.284;10.158;2024-01-06T12:50:48;0.50;99.90
5675;DHT22;2860;54.284;10.158;2024-01-06T12:53:14;0.50;99.90
5675;DHT22;2860;54.284;10.158;2024-01-06T12:55:41;0.50;99.90
5675;DHT22;2860;54.284;10.158;2024-01-06T12:58:06;0.60;99.90
5675;DHT22;2860;54.284;10.158;2024-01-06T13:00:33;0.60;99.90
5675;DHT22;2860;54.284;10.158;2024-01-06T13:02:59;0.60;99.90
5675;DHT22;2860;54.284;10.158;2024-01-06T13:05:24;0.60;99.90
5675;DHT22;2860;54.284;10.158;2024-01-06T13:07:50;0.60;99.90
5675;DHT22;2860;54.284;10.158;2024-01-06T13:10:16;0.60;99.90
5675;DHT22;2860;54.284;10.158;2024-01-06T13:12:42;0.60;99.90
5675;DHT22;2860;54.284;10.158;2024-01-06T13:15:08;0.60;99.90
5675;DHT22;2860;54.284;10.158;2024-01-06T13:17:36;0.60;99.90
5675;DHT22;2860;54.284;10.158;2024-01-06T13:20:02;0.60;99.90
5675;DHT22;2860;54.284;10.158;2024-01-06T13:22:28;0.60;99.90
5675;DHT22;2860;54.284;10.158;2024-01-06T13:24:54;0.60;99.90
5675;DHT22;2860;54.284;10.158;2024-01-06T13:27:19;0.60;99.90
5675;DHT22;2860;54.284;10.158;2024-01-06T13:29:45;0.60;99.90
5675;DHT22;2860;54.284;10.158;2024-01-06T13:32:10;0.60;99.90
5675;DHT22;2860;54.284;10.158;2024-01-06T13:34:36;0.60;99.90
5675;DHT22;2860;54.284;10.158;2024-01-06T13:37:02;0.50;99.90
5675;DHT22;2860;54.284;10.158;2024-01-06T13:39:27;0.50;99.90
5675;DHT22;2860;54.284;10.158;2024-01-06T13:41:53;0.50;99.90
5675;DHT22;2860;54.284;10.158;2024-01-06T13:44:18;0.40;99.90
5675;DHT22;2860;54.284;10.158;2024-01-06T13:46:44;0.40;99.90
5675;DHT22;2860;54.284;10.158;2024-01-06T13:49:11;0.50;99.90
5675;DHT22;2860;54.284;10.158;2024-01-06T13:51:37;0.40;99.90
5675;DHT22;2860;54.284;10.158;2024-01-06T13:54:03;0.40;99.90
5675;DHT22;2860;54.284;10.158;2024-01-06T13:56:29;0.40;99.90
5675;DHT22;2860;54.284;10.158;2024-01-06T13:58:54;0.40;99.90
5675;DHT22;2860;54.284;10.158;2024-01-06T14:01:20;0.40;99.90
5675;DHT22;2860;54.284;10.158;2024-01-06T14:03:45;0.40;99.90
5675;DHT22;2860;54.284;10.158;2024-01-06T14:06:11;0.50;99.90
5675;DHT22;2860;54.284;10.158;2024-01-06T14:08:36;0.40;99.90
5675;DHT22;2860;54.284;10.158;2024-01-06T14:11:02;0.40;99.90
5675;DHT22;2860;54.284;10.158;2024-01-06T14:13:27;0.40;99.90
5675;DHT22;2860;54.284;10.158;2024-01-06T14:15:53;0.40;99.90
5675;DHT22;2860;54.284;10.158;2024-01-06T14:18:19;0.40;99.90
5675;DHT22;2860;54.284;10.158;2024-01-06T14:20:44;0.40;99.90
5675;DHT22;2860;54.284;10.158;2024-01-06T14:23:10;0.40;99.90
5675;DHT22;2860;54.284;10.158;2024-01-06T14:25:36;0.40;99.90
5675;DHT22;2860;54.284;10.158;2024-01-06T14:28:01;0.40;99.90
5675;DHT22;2860;54.284;10.158;2024-01-06T14:30:27;0.40;99.90
5675;DHT22;2860;54.284;10.158;2024-01-06T14:32:52;0.40;99.90
5675;DHT22;2860;54.284;10.158;2024-01-06T14:35:18;0.40;99.90
5675;DHT22;2860;54.284;10.158;2024-01-06T14:37:43;0.40;99.90
5675;DHT22;2860;54.284;10.158;2024-01-06T14:40:12;0.40;99.90
5675;DHT22;2860;54.284;10.158;2024-01-06T14:42:38;0.40;99.90
5675;DHT22;2860;54.284;10.158;2024-01-06T14:45:04;0.30;99.90
5675;DHT22;2860;54.284;10.158;2024-01-06T14:47:30;0.30;99.90
5675;DHT22;2860;54.284;10.158;2024-01-06T14:49:57;0.30;99.90
5675;DHT22;2860;54.284;10.158;2024-01-06T14:52:23;0.30;99.90
5675;DHT22;2860;54.284;10.158;2024-01-06T14:54:48;0.20;99.90
5675;DHT22;2860;54.284;10.158;2024-01-06T14:57:14;0.20;99.90
5675;DHT22;2860;54.284;10.158;2024-01-06T14:59:40;0.30;99.90
5675;DHT22;2860;54.284;10.158;2024-01-06T15:02:06;0.30;99.90
5675;DHT22;2860;54.284;10.158;2024-01-06T15:04:32;0.20;99.90
5675;DHT22;2860;54.284;10.158;2024-01-06T15:06:58;0.20;99.90
5675;DHT22;2860;54.284;10.158;2024-01-06T15:09:24;0.20;99.90
5675;DHT22;2860;54.284;10.158;2024-01-06T15:11:52;0.20;99.90
5675;DHT22;2860;54.284;10.158;2024-01-06T15:14:17;0.20;99.90
5675;DHT22;2860;54.284;10.158;2024-01-06T15:16:43;0.20;99.90
5675;DHT22;2860;54.284;10.158;2024-01-06T15:19:08;0.20;99.90
5675;DHT22;2860;54.284;10.158;2024-01-06T15:21:34;0.20;99.90
5675;DHT22;2860;54.284;10.158;2024-01-06T15:24:02;0.20;99.90
5675;DHT22;2860;54.284;10.158;2024-01-06T15:26:27;0.10;99.90
5675;DHT22;2860;54.284;10.158;2024-01-06T15:28:53;0.10;99.90
5675;DHT22;2860;54.284;10.158;2024-01-06T15:31:19;0.10;99.90
5675;DHT22;2860;54.284;10.158;2024-01-06T15:33:44;0.00;99.90
5675;DHT22;2860;54.284;10.158;2024-01-06T15:36:13;0.10;99.90
5675;DHT22;2860;54.284;10.158;2024-01-06T15:38:39;0.00;99.90
5675;DHT22;2860;54.284;10.158;2024-01-06T15:41:06;0.00;99.90
5675;DHT22;2860;54.284;10.158;2024-01-06T15:43:32;0.00;99.90
5675;DHT22;2860;54.284;10.158;2024-01-06T15:45:57;0.00;99.90
5675;DHT22;2860;54.284;10.158;2024-01-06T15:48:23;0.00;99.90
5675;DHT22;2860;54.284;10.158;2024-01-06T15:50:49;0.00;99.90